sensor_id;sensor_type;location;lat;lon;timestamp;P1;durP1;ratioP1;P2;durP2;ratioP2
21802;SDS011;18591;47.080;22.214;2022-08-01T00:00:45;2.35;;;1.75;;
21802;SDS011;18591;47.080;22.214;2022-08-01T00:02:47;0.93;;;0.90;;
21802;SDS011;18591;47.080;22.214;2022-08-01T00:04:49;2.35;;;1.50;;
21802;SDS011;18591;47.080;22.214;2022-08-01T00:06:51;1.88;;;1.58;;
21802;SDS011;18591;47.080;22.214;2022-08-01T00:08:53;2.45;;;1.67;;
21802;SDS011;18591;47.080;22.214;2022-08-01T00:10:56;3.22;;;2.03;;
21802;SDS011;18591;47.080;22.214;2022-08-01T00:13:02;1.70;;;1.60;;
21802;SDS011;18591;47.080;22.214;2022-08-01T00:15:05;6.57;;;1.88;;
21802;SDS011;18591;47.080;22.214;2022-08-01T00:17:08;4.45;;;1.50;;
21802;SDS011;18591;47.080;22.214;2022-08-01T00:19:11;4.15;;;1.90;;
21802;SDS011;18591;47.080;22.214;2022-08-01T00:21:13;1.75;;;1.65;;
21802;SDS011;18591;47.080;22.214;2022-08-01T00:23:15;2.20;;;2.00;;
21802;SDS011;18591;47.080;22.214;2022-08-01T00:25:16;2.58;;;1.65;;
21802;SDS011;18591;47.080;22.214;2022-08-01T00:27:18;2.70;;;1.63;;
21802;SDS011;18591;47.080;22.214;2022-08-01T00:29:20;2.88;;;1.80;;
21802;SDS011;18591;47.080;22.214;2022-08-01T00:31:42;3.28;;;1.80;;
21802;SDS011;18591;47.080;22.214;2022-08-01T00:33:44;2.70;;;2.45;;
21802;SDS011;18591;47.080;22.214;2022-08-01T00:35:46;3.83;;;2.25;;
21802;SDS011;18591;47.080;22.214;2022-08-01T00:37:48;1.50;;;1.40;;
21802;SDS011;18591;47.080;22.214;2022-08-01T00:39:50;3.47;;;1.70;;
21802;SDS011;18591;47.080;22.214;2022-08-01T00:41:52;2.67;;;2.30;;
21802;SDS011;18591;47.080;22.214;2022-08-01T00:44:03;1.95;;;1.80;;
21802;SDS011;18591;47.080;22.214;2022-08-01T00:46:06;1.92;;;1.83;;
21802;SDS011;18591;47.080;22.214;2022-08-01T00:48:08;3.30;;;2.10;;
21802;SDS011;18591;47.080;22.214;2022-08-01T00:50:10;3.45;;;2.30;;
21802;SDS011;18591;47.080;22.214;2022-08-01T00:52:13;2.33;;;2.13;;
21802;SDS011;18591;47.080;22.214;2022-08-01T00:54:15;2.15;;;1.98;;
21802;SDS011;18591;47.080;22.214;2022-08-01T00:56:17;2.80;;;2.60;;
21802;SDS011;18591;47.080;22.214;2022-08-01T00:58:20;2.50;;;2.15;;
21802;SDS011;18591;47.080;22.214;2022-08-01T01:00:24;4.28;;;2.67;;
21802;SDS011;18591;47.080;22.214;2022-08-01T01:02:27;3.25;;;2.95;;
21802;SDS011;18591;47.080;22.214;2022-08-01T01:04:29;2.58;;;2.33;;
21802;SDS011;18591;47.080;22.214;2022-08-01T01:06:36;3.13;;;2.55;;
21802;SDS011;18591;47.080;22.214;2022-08-01T01:11:08;3.92;;;2.70;;
21802;SDS011;18591;47.080;22.214;2022-08-01T01:13:18;2.60;;;2.35;;
21802;SDS011;18591;47.080;22.214;2022-08-01T01:15:23;3.30;;;3.00;;
21802;SDS011;18591;47.080;22.214;2022-08-01T01:17:41;5.93;;;3.05;;
21802;SDS011;18591;47.080;22.214;2022-08-01T01:20:04;2.47;;;2.28;;
21802;SDS011;18591;47.080;22.214;2022-08-01T01:24:48;3.42;;;2.30;;
21802;SDS011;18591;47.080;22.214;2022-08-01T01:31:56;3.63;;;2.55;;
21802;SDS011;18591;47.080;22.214;2022-08-01T01:34:04;2.55;;;2.35;;
21802;SDS011;18591;47.080;22.214;2022-08-01T01:36:09;2.90;;;2.70;;
21802;SDS011;18591;47.080;22.214;2022-08-01T01:38:22;3.05;;;2.60;;
21802;SDS011;18591;47.080;22.214;2022-08-01T01:40:28;2.75;;;2.55;;
21802;SDS011;18591;47.080;22.214;2022-08-01T01:42:32;3.35;;;3.03;;
21802;SDS011;18591;47.080;22.214;2022-08-01T01:44:36;3.53;;;3.22;;
21802;SDS011;18591;47.080;22.214;2022-08-01T01:46:39;3.00;;;2.80;;
21802;SDS011;18591;47.080;22.214;2022-08-01T01:48:43;3.55;;;3.25;;
21802;SDS011;18591;47.080;22.214;2022-08-01T01:50:48;3.75;;;3.45;;
21802;SDS011;18591;47.080;22.214;2022-08-01T01:52:52;3.35;;;3.15;;
21802;SDS011;18591;47.080;22.214;2022-08-01T01:54:56;4.80;;;4.40;;
21802;SDS011;18591;47.080;22.214;2022-08-01T01:57:00;3.63;;;3.33;;
21802;SDS011;18591;47.080;22.214;2022-08-01T01:59:05;4.95;;;3.95;;
21802;SDS011;18591;47.080;22.214;2022-08-01T02:01:07;3.10;;;2.90;;
21802;SDS011;18591;47.080;22.214;2022-08-01T02:03:15;8.18;;;3.47;;
21802;SDS011;18591;47.080;22.214;2022-08-01T02:05:19;3.53;;;3.28;;
21802;SDS011;18591;47.080;22.214;2022-08-01T02:07:23;4.20;;;3.90;;
21802;SDS011;18591;47.080;22.214;2022-08-01T02:09:28;4.22;;;3.60;;
21802;SDS011;18591;47.080;22.214;2022-08-01T02:11:32;3.90;;;3.60;;
21802;SDS011;18591;47.080;22.214;2022-08-01T02:13:36;4.30;;;3.90;;
21802;SDS011;18591;47.080;22.214;2022-08-01T02:15:40;5.05;;;3.65;;
21802;SDS011;18591;47.080;22.214;2022-08-01T02:18:00;3.92;;;3.63;;
21802;SDS011;18591;47.080;22.214;2022-08-01T02:20:03;4.15;;;3.85;;
21802;SDS011;18591;47.080;22.214;2022-08-01T02:26:39;4.55;;;3.65;;
21802;SDS011;18591;47.080;22.214;2022-08-01T02:28:47;6.00;;;4.50;;
21802;SDS011;18591;47.080;22.214;2022-08-01T02:30:54;6.00;;;5.40;;
21802;SDS011;18591;47.080;22.214;2022-08-01T02:33:12;5.32;;;4.63;;
21802;SDS011;18591;47.080;22.214;2022-08-01T02:35:19;6.60;;;4.82;;
21802;SDS011;18591;47.080;22.214;2022-08-01T02:38:02;7.38;;;4.60;;
21802;SDS011;18591;47.080;22.214;2022-08-01T02:40:06;5.80;;;4.75;;
21802;SDS011;18591;47.080;22.214;2022-08-01T02:42:14;5.13;;;4.53;;
21802;SDS011;18591;47.080;22.214;2022-08-01T02:44:23;7.47;;;6.00;;
21802;SDS011;18591;47.080;22.214;2022-08-01T02:46:33;5.28;;;4.78;;
21802;SDS011;18591;47.080;22.214;2022-08-01T02:48:38;6.43;;;5.00;;
21802;SDS011;18591;47.080;22.214;2022-08-01T02:50:42;5.85;;;4.63;;
21802;SDS011;18591;47.080;22.214;2022-08-01T02:52:48;7.82;;;5.70;;
21802;SDS011;18591;47.080;22.214;2022-08-01T02:54:53;5.78;;;5.05;;
21802;SDS011;18591;47.080;22.214;2022-08-01T02:56:57;7.88;;;6.65;;
21802;SDS011;18591;47.080;22.214;2022-08-01T02:59:06;4.43;;;4.13;;
21802;SDS011;18591;47.080;22.214;2022-08-01T03:01:10;6.45;;;5.65;;
21802;SDS011;18591;47.080;22.214;2022-08-01T03:03:14;5.25;;;4.80;;
21802;SDS011;18591;47.080;22.214;2022-08-01T03:05:17;5.75;;;4.95;;
21802;SDS011;18591;47.080;22.214;2022-08-01T03:07:20;7.60;;;4.53;;
21802;SDS011;18591;47.080;22.214;2022-08-01T03:09:22;6.18;;;4.88;;
21802;SDS011;18591;47.080;22.214;2022-08-01T03:11:25;4.60;;;3.88;;
21802;SDS011;18591;47.080;22.214;2022-08-01T03:13:29;6.05;;;4.18;;
21802;SDS011;18591;47.080;22.214;2022-08-01T03:15:35;5.10;;;4.60;;
21802;SDS011;18591;47.080;22.214;2022-08-01T03:17:39;4.55;;;3.40;;
21802;SDS011;18591;47.080;22.214;2022-08-01T03:19:44;4.28;;;3.97;;
21802;SDS011;18591;47.080;22.214;2022-08-01T03:21:49;3.58;;;3.13;;
21802;SDS011;18591;47.080;22.214;2022-08-01T03:23:53;4.05;;;3.75;;
21802;SDS011;18591;47.080;22.214;2022-08-01T03:25:59;9.20;;;4.93;;
21802;SDS011;18591;47.080;22.214;2022-08-01T03:28:04;5.15;;;4.47;;
21802;SDS011;18591;47.080;22.214;2022-08-01T03:30:08;4.35;;;3.90;;
21802;SDS011;18591;47.080;22.214;2022-08-01T03:32:11;4.57;;;4.15;;
21802;SDS011;18591;47.080;22.214;2022-08-01T03:34:15;5.70;;;3.70;;
21802;SDS011;18591;47.080;22.214;2022-08-01T03:36:18;3.25;;;2.95;;
21802;SDS011;18591;47.080;22.214;2022-08-01T03:38:25;2.92;;;2.72;;
21802;SDS011;18591;47.080;22.214;2022-08-01T03:40:30;3.17;;;2.70;;
21802;SDS011;18591;47.080;22.214;2022-08-01T03:42:38;3.80;;;3.08;;
21802;SDS011;18591;47.080;22.214;2022-08-01T03:44:47;3.20;;;2.90;;
21802;SDS011;18591;47.080;22.214;2022-08-01T03:47:02;3.97;;;2.80;;
21802;SDS011;18591;47.080;22.214;2022-08-01T03:49:10;2.22;;;2.03;;
21802;SDS011;18591;47.080;22.214;2022-08-01T03:51:16;2.83;;;2.15;;
21802;SDS011;18591;47.080;22.214;2022-08-01T03:53:23;3.15;;;1.98;;
21802;SDS011;18591;47.080;22.214;2022-08-01T03:55:29;3.63;;;1.92;;
21802;SDS011;18591;47.080;22.214;2022-08-01T03:57:34;4.00;;;2.13;;
21802;SDS011;18591;47.080;22.214;2022-08-01T03:59:37;2.17;;;1.70;;
21802;SDS011;18591;47.080;22.214;2022-08-01T04:01:39;1.40;;;1.15;;
21802;SDS011;18591;47.080;22.214;2022-08-01T04:03:42;2.15;;;1.67;;
21802;SDS011;18591;47.080;22.214;2022-08-01T04:05:45;2.83;;;1.60;;
21802;SDS011;18591;47.080;22.214;2022-08-01T04:07:48;1.38;;;1.20;;
21802;SDS011;18591;47.080;22.214;2022-08-01T04:09:57;1.90;;;1.17;;
21802;SDS011;18591;47.080;22.214;2022-08-01T04:11:59;1.90;;;1.50;;
21802;SDS011;18591;47.080;22.214;2022-08-01T04:14:12;1.38;;;1.27;;
21802;SDS011;18591;47.080;22.214;2022-08-01T04:16:14;1.45;;;1.13;;
21802;SDS011;18591;47.080;22.214;2022-08-01T04:18:16;1.77;;;1.38;;
21802;SDS011;18591;47.080;22.214;2022-08-01T04:20:18;2.80;;;1.17;;
21802;SDS011;18591;47.080;22.214;2022-08-01T04:22:20;2.45;;;1.27;;
21802;SDS011;18591;47.080;22.214;2022-08-01T04:24:22;3.25;;;0.95;;
21802;SDS011;18591;47.080;22.214;2022-08-01T04:26:26;3.83;;;1.10;;
21802;SDS011;18591;47.080;22.214;2022-08-01T04:28:31;3.42;;;1.27;;
21802;SDS011;18591;47.080;22.214;2022-08-01T04:30:36;2.55;;;1.30;;
21802;SDS011;18591;47.080;22.214;2022-08-01T04:32:39;1.08;;;1.00;;
21802;SDS011;18591;47.080;22.214;2022-08-01T04:34:45;1.92;;;1.00;;
21802;SDS011;18591;47.080;22.214;2022-08-01T04:36:48;2.03;;;1.23;;
21802;SDS011;18591;47.080;22.214;2022-08-01T04:38:54;1.33;;;1.00;;
21802;SDS011;18591;47.080;22.214;2022-08-01T04:40:59;1.35;;;1.00;;
21802;SDS011;18591;47.080;22.214;2022-08-01T04:43:09;3.05;;;1.10;;
21802;SDS011;18591;47.080;22.214;2022-08-01T04:45:14;1.60;;;1.27;;
21802;SDS011;18591;47.080;22.214;2022-08-01T04:47:17;1.60;;;1.35;;
21802;SDS011;18591;47.080;22.214;2022-08-01T04:49:20;2.67;;;1.38;;
21802;SDS011;18591;47.080;22.214;2022-08-01T04:51:22;1.33;;;0.98;;
21802;SDS011;18591;47.080;22.214;2022-08-01T04:53:25;2.40;;;1.05;;
21802;SDS011;18591;47.080;22.214;2022-08-01T04:55:28;1.10;;;1.00;;
21802;SDS011;18591;47.080;22.214;2022-08-01T04:57:30;2.55;;;1.17;;
21802;SDS011;18591;47.080;22.214;2022-08-01T04:59:32;2.30;;;1.60;;
21802;SDS011;18591;47.080;22.214;2022-08-01T05:01:41;1.50;;;1.00;;
21802;SDS011;18591;47.080;22.214;2022-08-01T05:03:43;1.17;;;1.10;;
21802;SDS011;18591;47.080;22.214;2022-08-01T05:05:45;1.13;;;0.88;;
21802;SDS011;18591;47.080;22.214;2022-08-01T05:07:47;0.75;;;0.70;;
21802;SDS011;18591;47.080;22.214;2022-08-01T05:09:49;2.03;;;1.02;;
21802;SDS011;18591;47.080;22.214;2022-08-01T05:11:51;2.03;;;1.17;;
21802;SDS011;18591;47.080;22.214;2022-08-01T05:13:54;1.35;;;0.80;;
21802;SDS011;18591;47.080;22.214;2022-08-01T05:15:55;0.88;;;0.85;;
21802;SDS011;18591;47.080;22.214;2022-08-01T05:17:57;2.70;;;1.17;;
21802;SDS011;18591;47.080;22.214;2022-08-01T05:19:59;4.07;;;1.00;;
21802;SDS011;18591;47.080;22.214;2022-08-01T05:22:01;1.85;;;0.93;;
21802;SDS011;18591;47.080;22.214;2022-08-01T05:24:06;2.22;;;0.90;;
21802;SDS011;18591;47.080;22.214;2022-08-01T05:26:09;0.88;;;0.73;;
21802;SDS011;18591;47.080;22.214;2022-08-01T05:28:15;0.90;;;0.90;;
21802;SDS011;18591;47.080;22.214;2022-08-01T05:30:19;0.90;;;0.80;;
21802;SDS011;18591;47.080;22.214;2022-08-01T05:32:21;1.10;;;1.00;;
21802;SDS011;18591;47.080;22.214;2022-08-01T05:34:23;0.90;;;0.90;;
21802;SDS011;18591;47.080;22.214;2022-08-01T05:36:25;2.40;;;1.10;;
21802;SDS011;18591;47.080;22.214;2022-08-01T05:38:27;1.15;;;0.98;;
21802;SDS011;18591;47.080;22.214;2022-08-01T05:40:29;0.70;;;0.70;;
21802;SDS011;18591;47.080;22.214;2022-08-01T05:42:31;0.68;;;0.68;;
21802;SDS011;18591;47.080;22.214;2022-08-01T05:44:33;0.82;;;0.82;;
21802;SDS011;18591;47.080;22.214;2022-08-01T05:46:36;0.80;;;0.77;;
21802;SDS011;18591;47.080;22.214;2022-08-01T05:48:38;1.40;;;0.82;;
21802;SDS011;18591;47.080;22.214;2022-08-01T05:50:40;2.17;;;0.80;;
21802;SDS011;18591;47.080;22.214;2022-08-01T05:52:41;2.38;;;0.80;;
21802;SDS011;18591;47.080;22.214;2022-08-01T05:54:43;1.75;;;0.80;;
21802;SDS011;18591;47.080;22.214;2022-08-01T05:56:46;1.58;;;0.80;;
21802;SDS011;18591;47.080;22.214;2022-08-01T05:58:48;1.23;;;0.75;;
21802;SDS011;18591;47.080;22.214;2022-08-01T06:00:51;2.47;;;0.60;;
21802;SDS011;18591;47.080;22.214;2022-08-01T06:02:53;1.35;;;0.80;;
21802;SDS011;18591;47.080;22.214;2022-08-01T06:04:55;3.10;;;1.38;;
21802;SDS011;18591;47.080;22.214;2022-08-01T06:06:57;1.42;;;1.30;;
21802;SDS011;18591;47.080;22.214;2022-08-01T06:08:59;2.42;;;1.48;;
21802;SDS011;18591;47.080;22.214;2022-08-01T06:11:02;1.70;;;1.48;;
21802;SDS011;18591;47.080;22.214;2022-08-01T06:13:04;2.45;;;1.92;;
21802;SDS011;18591;47.080;22.214;2022-08-01T06:15:06;1.88;;;1.77;;
21802;SDS011;18591;47.080;22.214;2022-08-01T06:17:08;2.47;;;2.03;;
21802;SDS011;18591;47.080;22.214;2022-08-01T06:19:10;2.00;;;1.90;;
21802;SDS011;18591;47.080;22.214;2022-08-01T06:21:12;2.72;;;1.90;;
21802;SDS011;18591;47.080;22.214;2022-08-01T06:23:14;2.90;;;2.00;;
21802;SDS011;18591;47.080;22.214;2022-08-01T06:25:33;2.75;;;2.30;;
21802;SDS011;18591;47.080;22.214;2022-08-01T06:27:35;2.40;;;2.10;;
21802;SDS011;18591;47.080;22.214;2022-08-01T06:29:37;3.10;;;2.60;;
21802;SDS011;18591;47.080;22.214;2022-08-01T06:31:51;2.17;;;1.95;;
21802;SDS011;18591;47.080;22.214;2022-08-01T06:33:53;2.17;;;1.98;;
21802;SDS011;18591;47.080;22.214;2022-08-01T06:35:55;2.45;;;2.25;;
21802;SDS011;18591;47.080;22.214;2022-08-01T06:37:57;2.63;;;1.90;;
21802;SDS011;18591;47.080;22.214;2022-08-01T06:40:06;2.33;;;1.70;;
21802;SDS011;18591;47.080;22.214;2022-08-01T06:42:17;2.08;;;1.88;;
21802;SDS011;18591;47.080;22.214;2022-08-01T06:44:19;1.70;;;1.60;;
21802;SDS011;18591;47.080;22.214;2022-08-01T06:46:21;1.98;;;1.77;;
21802;SDS011;18591;47.080;22.214;2022-08-01T06:48:23;2.25;;;2.00;;
21802;SDS011;18591;47.080;22.214;2022-08-01T06:50:25;2.20;;;1.90;;
21802;SDS011;18591;47.080;22.214;2022-08-01T06:52:26;3.10;;;1.75;;
21802;SDS011;18591;47.080;22.214;2022-08-01T06:54:29;2.67;;;1.90;;
21802;SDS011;18591;47.080;22.214;2022-08-01T06:56:30;2.10;;;1.50;;
21802;SDS011;18591;47.080;22.214;2022-08-01T06:58:32;1.70;;;1.60;;
21802;SDS011;18591;47.080;22.214;2022-08-01T07:00:36;1.45;;;1.35;;
21802;SDS011;18591;47.080;22.214;2022-08-01T07:02:38;2.63;;;1.60;;
21802;SDS011;18591;47.080;22.214;2022-08-01T07:04:39;2.92;;;1.88;;
21802;SDS011;18591;47.080;22.214;2022-08-01T07:06:42;1.38;;;1.27;;
21802;SDS011;18591;47.080;22.214;2022-08-01T07:08:44;2.60;;;1.63;;
21802;SDS011;18591;47.080;22.214;2022-08-01T07:10:46;1.70;;;1.60;;
21802;SDS011;18591;47.080;22.214;2022-08-01T07:12:48;1.60;;;1.50;;
21802;SDS011;18591;47.080;22.214;2022-08-01T07:14:49;1.70;;;1.60;;
21802;SDS011;18591;47.080;22.214;2022-08-01T07:16:51;1.73;;;1.63;;
21802;SDS011;18591;47.080;22.214;2022-08-01T07:18:53;2.83;;;1.30;;
21802;SDS011;18591;47.080;22.214;2022-08-01T07:20:55;4.53;;;1.50;;
21802;SDS011;18591;47.080;22.214;2022-08-01T07:22:57;1.50;;;1.40;;
21802;SDS011;18591;47.080;22.214;2022-08-01T07:25:00;1.08;;;1.08;;
21802;SDS011;18591;47.080;22.214;2022-08-01T07:27:02;2.88;;;1.52;;
21802;SDS011;18591;47.080;22.214;2022-08-01T07:29:24;2.75;;;1.58;;
21802;SDS011;18591;47.080;22.214;2022-08-01T07:31:26;1.83;;;1.67;;
21802;SDS011;18591;47.080;22.214;2022-08-01T07:33:32;2.60;;;1.45;;
21802;SDS011;18591;47.080;22.214;2022-08-01T07:35:49;1.55;;;1.45;;
21802;SDS011;18591;47.080;22.214;2022-08-01T07:37:51;2.35;;;2.08;;
21802;SDS011;18591;47.080;22.214;2022-08-01T07:39:54;2.67;;;1.50;;
21802;SDS011;18591;47.080;22.214;2022-08-01T07:41:56;2.58;;;1.60;;
21802;SDS011;18591;47.080;22.214;2022-08-01T07:44:08;2.83;;;2.63;;
21802;SDS011;18591;47.080;22.214;2022-08-01T07:46:10;3.83;;;2.15;;
21802;SDS011;18591;47.080;22.214;2022-08-01T07:48:12;2.38;;;2.15;;
21802;SDS011;18591;47.080;22.214;2022-08-01T07:50:14;2.53;;;2.20;;
21802;SDS011;18591;47.080;22.214;2022-08-01T07:52:15;2.78;;;2.58;;
21802;SDS011;18591;47.080;22.214;2022-08-01T07:54:18;2.22;;;2.13;;
21802;SDS011;18591;47.080;22.214;2022-08-01T07:56:33;2.08;;;1.80;;
21802;SDS011;18591;47.080;22.214;2022-08-01T07:58:35;4.63;;;1.90;;
21802;SDS011;18591;47.080;22.214;2022-08-01T08:00:37;2.85;;;1.85;;
21802;SDS011;18591;47.080;22.214;2022-08-01T08:02:39;2.25;;;1.50;;
21802;SDS011;18591;47.080;22.214;2022-08-01T08:04:41;4.20;;;1.92;;
21802;SDS011;18591;47.080;22.214;2022-08-01T08:06:49;1.65;;;1.55;;
21802;SDS011;18591;47.080;22.214;2022-08-01T08:08:51;1.75;;;1.65;;
21802;SDS011;18591;47.080;22.214;2022-08-01T08:10:54;2.30;;;2.10;;
21802;SDS011;18591;47.080;22.214;2022-08-01T08:12:57;1.90;;;1.80;;
21802;SDS011;18591;47.080;22.214;2022-08-01T08:14:58;1.98;;;1.65;;
21802;SDS011;18591;47.080;22.214;2022-08-01T08:17:02;1.80;;;1.70;;
21802;SDS011;18591;47.080;22.214;2022-08-01T08:19:05;1.60;;;1.45;;
21802;SDS011;18591;47.080;22.214;2022-08-01T08:21:07;2.63;;;2.30;;
21802;SDS011;18591;47.080;22.214;2022-08-01T08:23:09;4.53;;;2.25;;
21802;SDS011;18591;47.080;22.214;2022-08-01T08:25:44;1.88;;;1.65;;
21802;SDS011;18591;47.080;22.214;2022-08-01T08:27:45;2.38;;;1.67;;
21802;SDS011;18591;47.080;22.214;2022-08-01T08:29:47;4.28;;;1.98;;
21802;SDS011;18591;47.080;22.214;2022-08-01T08:31:49;1.35;;;1.25;;
21802;SDS011;18591;47.080;22.214;2022-08-01T08:33:53;1.30;;;1.20;;
21802;SDS011;18591;47.080;22.214;2022-08-01T08:35:55;1.58;;;1.30;;
21802;SDS011;18591;47.080;22.214;2022-08-01T08:37:57;2.28;;;1.17;;
21802;SDS011;18591;47.080;22.214;2022-08-01T08:40:00;1.63;;;0.93;;
21802;SDS011;18591;47.080;22.214;2022-08-01T08:42:05;1.13;;;1.10;;
21802;SDS011;18591;47.080;22.214;2022-08-01T08:44:09;1.40;;;1.20;;
21802;SDS011;18591;47.080;22.214;2022-08-01T08:46:12;1.20;;;1.10;;
21802;SDS011;18591;47.080;22.214;2022-08-01T08:48:16;3.33;;;1.20;;
21802;SDS011;18591;47.080;22.214;2022-08-01T08:50:19;1.20;;;1.10;;
21802;SDS011;18591;47.080;22.214;2022-08-01T08:52:22;1.30;;;1.20;;
21802;SDS011;18591;47.080;22.214;2022-08-01T08:54:24;1.20;;;1.10;;
21802;SDS011;18591;47.080;22.214;2022-08-01T08:56:31;2.28;;;1.27;;
21802;SDS011;18591;47.080;22.214;2022-08-01T08:58:37;2.65;;;1.40;;
21802;SDS011;18591;47.080;22.214;2022-08-01T09:00:39;1.33;;;1.23;;
21802;SDS011;18591;47.080;22.214;2022-08-01T09:02:42;1.73;;;1.25;;
21802;SDS011;18591;47.080;22.214;2022-08-01T09:04:46;1.23;;;1.00;;
21802;SDS011;18591;47.080;22.214;2022-08-01T09:06:50;1.70;;;1.40;;
21802;SDS011;18591;47.080;22.214;2022-08-01T09:08:52;1.65;;;1.50;;
21802;SDS011;18591;47.080;22.214;2022-08-01T09:10:55;1.50;;;0.98;;
21802;SDS011;18591;47.080;22.214;2022-08-01T09:13:05;2.85;;;1.23;;
21802;SDS011;18591;47.080;22.214;2022-08-01T09:15:11;1.40;;;1.20;;
21802;SDS011;18591;47.080;22.214;2022-08-01T09:17:13;1.08;;;1.00;;
21802;SDS011;18591;47.080;22.214;2022-08-01T09:19:16;1.70;;;1.35;;
21802;SDS011;18591;47.080;22.214;2022-08-01T09:21:41;1.50;;;1.20;;
21802;SDS011;18591;47.080;22.214;2022-08-01T09:23:58;1.40;;;1.30;;
21802;SDS011;18591;47.080;22.214;2022-08-01T09:26:04;2.50;;;1.80;;
21802;SDS011;18591;47.080;22.214;2022-08-01T09:28:06;3.78;;;2.33;;
21802;SDS011;18591;47.080;22.214;2022-08-01T09:30:15;2.92;;;2.00;;
21802;SDS011;18591;47.080;22.214;2022-08-01T09:32:26;2.70;;;1.80;;
21802;SDS011;18591;47.080;22.214;2022-08-01T09:34:35;3.35;;;1.98;;
21802;SDS011;18591;47.080;22.214;2022-08-01T09:36:44;1.77;;;1.67;;
21802;SDS011;18591;47.080;22.214;2022-08-01T09:38:50;2.97;;;1.70;;
21802;SDS011;18591;47.080;22.214;2022-08-01T09:40:54;3.40;;;2.03;;
21802;SDS011;18591;47.080;22.214;2022-08-01T09:43:10;2.88;;;1.90;;
21802;SDS011;18591;47.080;22.214;2022-08-01T09:45:33;3.55;;;1.98;;
21802;SDS011;18591;47.080;22.214;2022-08-01T09:47:44;4.50;;;2.20;;
21802;SDS011;18591;47.080;22.214;2022-08-01T09:49:52;2.40;;;1.70;;
21802;SDS011;18591;47.080;22.214;2022-08-01T09:52:09;2.53;;;1.98;;
21802;SDS011;18591;47.080;22.214;2022-08-01T09:54:15;1.95;;;1.75;;
21802;SDS011;18591;47.080;22.214;2022-08-01T09:56:41;2.53;;;1.67;;
21802;SDS011;18591;47.080;22.214;2022-08-01T09:58:54;3.42;;;2.20;;
21802;SDS011;18591;47.080;22.214;2022-08-01T10:01:01;2.80;;;1.90;;
21802;SDS011;18591;47.080;22.214;2022-08-01T10:03:27;2.50;;;1.77;;
21802;SDS011;18591;47.080;22.214;2022-08-01T10:05:32;1.90;;;1.70;;
21802;SDS011;18591;47.080;22.214;2022-08-01T10:07:57;2.22;;;1.77;;
21802;SDS011;18591;47.080;22.214;2022-08-01T10:10:12;2.20;;;1.70;;
21802;SDS011;18591;47.080;22.214;2022-08-01T10:12:17;3.55;;;2.13;;
21802;SDS011;18591;47.080;22.214;2022-08-01T10:14:22;3.60;;;1.90;;
21802;SDS011;18591;47.080;22.214;2022-08-01T10:16:26;2.08;;;1.88;;
21802;SDS011;18591;47.080;22.214;2022-08-01T10:18:31;3.75;;;2.35;;
21802;SDS011;18591;47.080;22.214;2022-08-01T10:20:34;1.98;;;1.77;;
21802;SDS011;18591;47.080;22.214;2022-08-01T10:22:38;1.95;;;1.80;;
21802;SDS011;18591;47.080;22.214;2022-08-01T10:24:41;4.88;;;1.77;;
21802;SDS011;18591;47.080;22.214;2022-08-01T10:26:49;2.38;;;1.80;;
21802;SDS011;18591;47.080;22.214;2022-08-01T10:28:54;3.90;;;1.77;;
21802;SDS011;18591;47.080;22.214;2022-08-01T10:30:57;1.65;;;1.45;;
21802;SDS011;18591;47.080;22.214;2022-08-01T10:32:59;1.77;;;1.67;;
21802;SDS011;18591;47.080;22.214;2022-08-01T10:35:06;2.38;;;2.17;;
21802;SDS011;18591;47.080;22.214;2022-08-01T10:37:15;1.80;;;1.70;;
21802;SDS011;18591;47.080;22.214;2022-08-01T10:39:18;2.47;;;1.60;;
21802;SDS011;18591;47.080;22.214;2022-08-01T10:41:21;2.47;;;1.70;;
21802;SDS011;18591;47.080;22.214;2022-08-01T10:43:27;2.63;;;1.83;;
21802;SDS011;18591;47.080;22.214;2022-08-01T10:45:32;2.40;;;1.60;;
21802;SDS011;18591;47.080;22.214;2022-08-01T10:47:40;1.95;;;1.58;;
21802;SDS011;18591;47.080;22.214;2022-08-01T10:49:56;3.72;;;2.30;;
21802;SDS011;18591;47.080;22.214;2022-08-01T10:52:05;2.28;;;1.70;;
21802;SDS011;18591;47.080;22.214;2022-08-01T10:54:09;2.13;;;1.92;;
21802;SDS011;18591;47.080;22.214;2022-08-01T10:56:12;2.20;;;1.90;;
21802;SDS011;18591;47.080;22.214;2022-08-01T10:58:21;2.40;;;2.20;;
21802;SDS011;18591;47.080;22.214;2022-08-01T11:00:28;1.90;;;1.80;;
21802;SDS011;18591;47.080;22.214;2022-08-01T11:02:31;4.05;;;1.73;;
21802;SDS011;18591;47.080;22.214;2022-08-01T11:07:20;2.30;;;1.95;;
21802;SDS011;18591;47.080;22.214;2022-08-01T11:09:28;4.60;;;2.22;;
21802;SDS011;18591;47.080;22.214;2022-08-01T11:14:04;3.00;;;2.30;;
21802;SDS011;18591;47.080;22.214;2022-08-01T11:16:36;4.38;;;1.98;;
21802;SDS011;18591;47.080;22.214;2022-08-01T11:18:37;2.40;;;2.08;;
21802;SDS011;18591;47.080;22.214;2022-08-01T11:20:56;1.85;;;1.73;;
21802;SDS011;18591;47.080;22.214;2022-08-01T11:23:19;2.53;;;1.70;;
21802;SDS011;18591;47.080;22.214;2022-08-01T11:26:12;3.15;;;1.88;;
21802;SDS011;18591;47.080;22.214;2022-08-01T11:30:32;2.70;;;1.45;;
21802;SDS011;18591;47.080;22.214;2022-08-01T11:32:47;2.42;;;2.00;;
21802;SDS011;18591;47.080;22.214;2022-08-01T11:35:10;5.18;;;2.10;;
21802;SDS011;18591;47.080;22.214;2022-08-01T11:37:23;2.30;;;2.10;;
21802;SDS011;18591;47.080;22.214;2022-08-01T11:39:31;1.88;;;1.70;;
21802;SDS011;18591;47.080;22.214;2022-08-01T11:41:39;2.97;;;2.00;;
21802;SDS011;18591;47.080;22.214;2022-08-01T11:43:55;2.17;;;2.08;;
21802;SDS011;18591;47.080;22.214;2022-08-01T11:45:59;2.85;;;1.88;;
21802;SDS011;18591;47.080;22.214;2022-08-01T11:48:01;3.10;;;2.17;;
21802;SDS011;18591;47.080;22.214;2022-08-01T11:50:29;3.88;;;1.70;;
21802;SDS011;18591;47.080;22.214;2022-08-01T11:52:35;2.55;;;1.70;;
21802;SDS011;18591;47.080;22.214;2022-08-01T11:54:43;2.65;;;2.10;;
21802;SDS011;18591;47.080;22.214;2022-08-01T11:56:49;3.45;;;1.83;;
21802;SDS011;18591;47.080;22.214;2022-08-01T11:58:58;1.77;;;1.67;;
21802;SDS011;18591;47.080;22.214;2022-08-01T12:01:01;3.45;;;1.65;;
21802;SDS011;18591;47.080;22.214;2022-08-01T12:03:04;2.20;;;1.50;;
21802;SDS011;18591;47.080;22.214;2022-08-01T12:05:14;3.28;;;1.58;;
21802;SDS011;18591;47.080;22.214;2022-08-01T12:07:26;3.72;;;1.75;;
21802;SDS011;18591;47.080;22.214;2022-08-01T12:09:29;1.75;;;1.40;;
21802;SDS011;18591;47.080;22.214;2022-08-01T12:11:30;3.03;;;1.80;;
21802;SDS011;18591;47.080;22.214;2022-08-01T12:13:41;1.90;;;1.60;;
21802;SDS011;18591;47.080;22.214;2022-08-01T12:15:44;2.00;;;1.48;;
21802;SDS011;18591;47.080;22.214;2022-08-01T12:17:51;4.15;;;1.90;;
21802;SDS011;18591;47.080;22.214;2022-08-01T12:20:00;3.78;;;1.67;;
21802;SDS011;18591;47.080;22.214;2022-08-01T12:22:13;3.85;;;1.40;;
21802;SDS011;18591;47.080;22.214;2022-08-01T12:24:21;2.53;;;1.40;;
21802;SDS011;18591;47.080;22.214;2022-08-01T12:26:37;4.57;;;1.48;;
21802;SDS011;18591;47.080;22.214;2022-08-01T12:28:40;1.65;;;1.55;;
21802;SDS011;18591;47.080;22.214;2022-08-01T12:30:42;1.95;;;1.70;;
21802;SDS011;18591;47.080;22.214;2022-08-01T12:32:47;2.67;;;1.67;;
21802;SDS011;18591;47.080;22.214;2022-08-01T12:34:50;2.85;;;1.58;;
21802;SDS011;18591;47.080;22.214;2022-08-01T12:36:57;1.50;;;1.10;;
21802;SDS011;18591;47.080;22.214;2022-08-01T12:39:00;1.60;;;1.30;;
21802;SDS011;18591;47.080;22.214;2022-08-01T12:41:04;1.50;;;1.38;;
21802;SDS011;18591;47.080;22.214;2022-08-01T12:43:06;2.97;;;1.85;;
21802;SDS011;18591;47.080;22.214;2022-08-01T12:45:17;1.70;;;1.58;;
21802;SDS011;18591;47.080;22.214;2022-08-01T12:47:21;2.55;;;1.70;;